createdAt,value
2018-05-12T00:00:08.170Z,1011.78
2018-05-12T00:01:17.849Z,1011.79
2018-05-12T00:02:26.809Z,1011.79
2018-05-12T00:03:36.240Z,1011.8
2018-05-12T00:04:45.926Z,1011.8
2018-05-12T00:05:55.782Z,1011.79
2018-05-12T00:07:05.524Z,1011.82
2018-05-12T00:08:15.279Z,1011.83
2018-05-12T00:09:24.236Z,1011.81
2018-05-12T00:10:34.005Z,1011.83
2018-05-12T00:11:43.721Z,1011.83
2018-05-12T00:12:53.464Z,1011.85
2018-05-12T00:14:02.684Z,1011.84
2018-05-12T00:15:11.379Z,1011.84
2018-05-12T00:16:21.490Z,1011.87
2018-05-12T00:17:30.979Z,1011.86
2018-05-12T00:18:40.240Z,1011.88
2018-05-12T00:19:49.422Z,1011.84
2018-05-12T00:20:58.416Z,1011.82
2018-05-12T00:22:07.929Z,1011.81
2018-05-12T00:23:17.433Z,1011.86
2018-05-12T00:24:26.470Z,1011.81
2018-05-12T00:25:35.464Z,1011.79
2018-05-12T00:26:44.760Z,1011.76
2018-05-12T00:27:54.226Z,1011.79
2018-05-12T00:29:03.516Z,1011.83
2018-05-12T00:30:13.196Z,1011.76
2018-05-12T00:31:22.488Z,1011.81
2018-05-12T00:32:32.086Z,1011.74
2018-05-12T00:33:41.968Z,1011.72
2018-05-12T00:34:50.983Z,1011.69
2018-05-12T00:36:00.224Z,1011.7
2018-05-12T00:37:10.175Z,1011.68
2018-05-12T00:38:19.629Z,1011.72
2018-05-12T00:39:28.951Z,1011.65
2018-05-12T00:40:38.793Z,1011.72
2018-05-12T00:41:48.389Z,1011.73
2018-05-12T00:42:57.922Z,1011.71
2018-05-12T00:44:07.966Z,1011.75
2018-05-12T00:45:17.718Z,1011.73
2018-05-12T00:46:26.729Z,1011.7
2018-05-12T00:47:36.087Z,1011.68
2018-05-12T00:48:45.645Z,1011.71
2018-05-12T00:49:55.226Z,1011.71
2018-05-12T00:51:05.342Z,1011.66
2018-05-12T00:52:14.978Z,1011.67
2018-05-12T00:53:24.560Z,1011.67
2018-05-12T00:54:33.770Z,1011.61
2018-05-12T00:55:43.109Z,1011.66
2018-05-12T00:56:52.763Z,1011.65
2018-05-12T00:58:02.026Z,1011.61
2018-05-12T00:59:11.537Z,1011.61
2018-05-12T01:00:21.091Z,1011.6
2018-05-12T01:01:30.561Z,1011.59
2018-05-12T01:02:39.501Z,1011.56
2018-05-12T01:03:48.781Z,1011.57
2018-05-12T01:04:58.629Z,1011.56
2018-05-12T01:06:07.836Z,1011.53
2018-05-12T01:07:17.422Z,1011.51
2018-05-12T01:08:26.703Z,1011.5
2018-05-12T01:09:35.900Z,1011.51
2018-05-12T01:10:45.075Z,1011.53
2018-05-12T01:11:54.557Z,1011.52
2018-05-12T01:13:04.735Z,1011.56
2018-05-12T01:14:14.563Z,1011.54
2018-05-12T01:15:23.534Z,1011.51
2018-05-12T01:16:33.350Z,1011.5
2018-05-12T01:17:43.129Z,1011.5
2018-05-12T01:18:52.944Z,1011.52
2018-05-12T01:20:02.465Z,1011.49
2018-05-12T01:21:11.736Z,1011.47
2018-05-12T01:22:21.351Z,1011.49
2018-05-12T01:23:31.115Z,1011.48
2018-05-12T01:24:40.644Z,1011.46
2018-05-12T01:25:50.632Z,1011.48
2018-05-12T01:27:00.849Z,1011.46
2018-05-12T01:28:09.796Z,1011.42
2018-05-12T01:29:19.885Z,1011.4
2018-05-12T01:30:30.034Z,1011.41
2018-05-12T01:31:39.644Z,1011.42
2018-05-12T01:32:49.758Z,1011.41
2018-05-12T01:33:59.328Z,1011.39
2018-05-12T01:35:09.050Z,1011.42
2018-05-12T01:36:18.273Z,1011.41
2018-05-12T01:37:27.758Z,1011.41
2018-05-12T01:38:36.776Z,1011.41
2018-05-12T01:39:46.476Z,1011.41
2018-05-12T01:40:55.205Z,1011.4
2018-05-12T01:42:04.717Z,1011.38
2018-05-12T01:43:14.747Z,1011.4
2018-05-12T01:44:23.758Z,1011.39
2018-05-12T01:45:33.600Z,1011.36
2018-05-12T01:46:42.869Z,1011.34
2018-05-12T01:47:52.419Z,1011.31
2018-05-12T01:49:02.175Z,1011.36
2018-05-12T01:50:12.349Z,1011.37
2018-05-12T01:51:21.613Z,1011.36
2018-05-12T01:52:31.150Z,1011.39
2018-05-12T01:53:40.309Z,1011.4
2018-05-12T01:54:49.225Z,1011.4
2018-05-12T01:55:58.905Z,1011.41
2018-05-12T01:57:08.382Z,1011.41
2018-05-12T01:58:17.542Z,1011.41
2018-05-12T01:59:26.737Z,1011.39
2018-05-12T02:00:35.902Z,1011.39
2018-05-12T02:01:44.579Z,1011.44
2018-05-12T02:02:53.497Z,1011.42
2018-05-12T02:04:02.700Z,1011.4
2018-05-12T02:05:11.873Z,1011.41
2018-05-12T02:06:21.063Z,1011.4
2018-05-12T02:07:30.760Z,1011.41
2018-05-12T02:08:40.183Z,1011.39
2018-05-12T02:09:49.450Z,1011.39
2018-05-12T02:10:58.424Z,1011.36
2018-05-12T02:12:07.860Z,1011.41
2018-05-12T02:13:43.473Z,1011.37
2018-05-12T02:14:52.393Z,1011.38
2018-05-12T02:16:01.559Z,1011.32
2018-05-12T02:17:11.006Z,1011.37
2018-05-12T02:18:19.642Z,1011.35
2018-05-12T02:19:29.086Z,1011.35
2018-05-12T02:20:38.265Z,1011.36
2018-05-12T02:21:48.010Z,1011.38
2018-05-12T02:22:57.698Z,1011.39
2018-05-12T02:24:06.899Z,1011.36
2018-05-12T02:25:16.865Z,1011.37
2018-05-12T02:26:26.575Z,1011.39
2018-05-12T02:27:36.251Z,1011.39
2018-05-12T02:28:45.478Z,1011.36
2018-05-12T02:29:54.635Z,1011.35
2018-05-12T02:31:04.077Z,1011.4
2018-05-12T02:32:13.266Z,1011.38
2018-05-12T02:33:22.973Z,1011.41
2018-05-12T02:34:32.401Z,1011.36
2018-05-12T02:35:42.360Z,1011.38
2018-05-12T02:36:52.040Z,1011.39
2018-05-12T02:38:01.767Z,1011.41
2018-05-12T02:39:11.528Z,1011.42
2018-05-12T02:40:21.235Z,1011.44
2018-05-12T02:41:30.969Z,1011.42
2018-05-12T02:42:40.684Z,1011.41
2018-05-12T02:43:49.600Z,1011.41
2018-05-12T02:44:59.050Z,1011.38
2018-05-12T02:46:08.521Z,1011.36
2018-05-12T02:47:18.329Z,1011.38
2018-05-12T02:48:27.519Z,1011.39
2018-05-12T02:49:36.705Z,1011.37
2018-05-12T02:50:46.383Z,1011.36
2018-05-12T02:51:56.091Z,1011.36
2018-05-12T02:53:05.268Z,1011.33
2018-05-12T02:54:14.713Z,1011.36
2018-05-12T02:55:24.135Z,1011.34
2018-05-12T02:56:33.054Z,1011.33
2018-05-12T02:57:42.502Z,1011.36
2018-05-12T02:58:51.928Z,1011.38
2018-05-12T03:00:01.885Z,1011.35
2018-05-12T03:01:11.311Z,1011.39
2018-05-12T03:02:21.019Z,1011.34
2018-05-12T03:03:30.451Z,1011.35
2018-05-12T03:04:40.465Z,1011.34
2018-05-12T03:05:50.432Z,1011.36
2018-05-12T03:07:00.112Z,1011.36
2018-05-12T03:08:09.545Z,1011.37
2018-05-12T03:09:19.520Z,1011.39
2018-05-12T03:10:28.708Z,1011.41
2018-05-12T03:11:38.193Z,1011.41
2018-05-12T03:12:47.637Z,1011.41
2018-05-12T03:13:57.076Z,1011.4
2018-05-12T03:15:06.760Z,1011.4
2018-05-12T03:16:15.953Z,1011.38
2018-05-12T03:17:25.889Z,1011.4
2018-05-12T03:18:35.314Z,1011.37
2018-05-12T03:19:44.741Z,1011.38
2018-05-12T03:20:53.906Z,1011.35
2018-05-12T03:22:03.349Z,1011.37
2018-05-12T03:23:13.015Z,1011.37
2018-05-12T03:24:22.692Z,1011.38
2018-05-12T03:25:31.854Z,1011.37
2018-05-12T03:26:41.004Z,1011.35
2018-05-12T03:27:50.215Z,1011.31
2018-05-12T03:28:59.472Z,1011.33
2018-05-12T03:30:08.903Z,1011.35
2018-05-12T03:31:18.855Z,1011.39
2018-05-12T03:32:28.039Z,1011.36
2018-05-12T03:33:37.712Z,1011.36
2018-05-12T03:34:47.158Z,1011.37
2018-05-12T03:35:56.608Z,1011.37
2018-05-12T03:37:05.803Z,1011.34
2018-05-12T03:38:15.742Z,1011.34
2018-05-12T03:39:25.683Z,1011.38
2018-05-12T03:40:35.111Z,1011.37
2018-05-12T03:41:44.585Z,1011.37
2018-05-12T03:42:54.297Z,1011.33
2018-05-12T03:44:04.008Z,1011.35
2018-05-12T03:45:13.713Z,1011.37
2018-05-12T03:46:23.117Z,1011.38
2018-05-12T03:47:32.827Z,1011.39
2018-05-12T03:48:41.978Z,1011.39
2018-05-12T03:49:51.398Z,1011.44
2018-05-12T03:51:00.577Z,1011.41
2018-05-12T03:52:10.514Z,1011.48
2018-05-12T03:53:19.718Z,1011.43
2018-05-12T03:54:29.148Z,1011.47
2018-05-12T03:55:38.578Z,1011.5
2018-05-12T03:56:47.999Z,1011.51
2018-05-12T03:57:57.679Z,1011.49
2018-05-12T03:59:07.628Z,1011.49
2018-05-12T04:00:17.355Z,1011.53
2018-05-12T04:01:27.126Z,1011.54
2018-05-12T04:02:36.825Z,1011.54
2018-05-12T04:03:45.736Z,1011.57
2018-05-12T04:04:54.895Z,1011.53
2018-05-12T04:06:04.604Z,1011.52
2018-05-12T04:07:14.287Z,1011.55
2018-05-12T04:08:23.704Z,1011.54
2018-05-12T04:09:33.501Z,1011.51
2018-05-12T04:10:42.926Z,1011.51
2018-05-12T04:11:52.341Z,1011.5
2018-05-12T04:13:01.507Z,1011.5
2018-05-12T04:14:11.449Z,1011.51
2018-05-12T04:15:21.150Z,1011.56
2018-05-12T04:16:30.589Z,1011.53
2018-05-12T04:17:40.052Z,1011.56
2018-05-12T04:18:49.744Z,1011.56
2018-05-12T04:19:58.469Z,1011.54
2018-05-12T04:21:08.193Z,1011.54
2018-05-12T04:22:18.216Z,1011.54
2018-05-12T04:23:27.912Z,1011.53
2018-05-12T04:24:37.085Z,1011.51
2018-05-12T04:25:46.509Z,1011.48
2018-05-12T04:26:55.444Z,1011.48
2018-05-12T04:28:04.659Z,1011.44
2018-05-12T04:29:14.344Z,1011.46
2018-05-12T04:30:23.769Z,1011.46
2018-05-12T04:31:33.195Z,1011.46
2018-05-12T04:32:42.356Z,1011.47
2018-05-12T04:33:51.793Z,1011.45
2018-05-12T04:35:00.706Z,1011.45
2018-05-12T04:36:10.123Z,1011.49
2018-05-12T04:37:19.326Z,1011.46
2018-05-12T04:38:28.759Z,1011.47
2018-05-12T04:39:37.947Z,1011.5
2018-05-12T04:40:47.889Z,1011.49
2018-05-12T04:41:57.100Z,1011.46
2018-05-12T04:43:06.805Z,1011.52
2018-05-12T04:44:16.349Z,1011.49
2018-05-12T04:45:25.790Z,1011.5
2018-05-12T04:46:34.965Z,1011.52
2018-05-12T04:47:44.142Z,1011.48
2018-05-12T04:48:53.587Z,1011.49
2018-05-12T04:50:03.281Z,1011.5
2018-05-12T04:51:12.452Z,1011.5
2018-05-12T04:52:21.355Z,1011.51
2018-05-12T04:53:30.782Z,1011.49
2018-05-12T04:54:40.493Z,1011.52
2018-05-12T04:55:49.656Z,1011.52
2018-05-12T04:56:58.834Z,1011.49
2018-05-12T04:58:08.542Z,1011.47
2018-05-12T04:59:17.473Z,1011.44
2018-05-12T05:00:26.689Z,1011.45
2018-05-12T05:01:36.401Z,1011.45
2018-05-12T05:02:45.845Z,1011.48
2018-05-12T05:03:54.754Z,1011.47
2018-05-12T05:05:03.928Z,1011.47
2018-05-12T05:06:13.621Z,1011.49
2018-05-12T05:07:23.077Z,1011.45
2018-05-12T05:08:32.529Z,1011.48
2018-05-12T05:09:41.974Z,1011.45
2018-05-12T05:10:50.889Z,1011.48
2018-05-12T05:12:00.307Z,1011.53
2018-05-12T05:13:09.481Z,1011.47
2018-05-12T05:14:18.926Z,1011.52
2018-05-12T05:15:28.402Z,1011.58
2018-05-12T05:16:38.151Z,1011.54
2018-05-12T05:17:47.340Z,1011.58
2018-05-12T05:18:56.833Z,1011.56
2018-05-12T05:20:05.739Z,1011.59
2018-05-12T05:21:15.240Z,1011.59
2018-05-12T05:22:24.901Z,1011.62
2018-05-12T05:23:34.603Z,1011.56
2018-05-12T05:24:43.768Z,1011.6
2018-05-12T05:25:53.221Z,1011.62
2018-05-12T05:27:02.380Z,1011.63
2018-05-12T05:28:12.343Z,1011.64
2018-05-12T05:29:21.505Z,1011.6
2018-05-12T05:30:30.674Z,1011.59
2018-05-12T05:31:40.388Z,1011.63
2018-05-12T05:32:49.584Z,1011.56
2018-05-12T05:33:58.761Z,1011.59
2018-05-12T05:35:08.273Z,1011.62
2018-05-12T05:36:18.163Z,1011.63
2018-05-12T05:37:27.966Z,1011.64
2018-05-12T05:38:37.399Z,1011.63
2018-05-12T05:39:46.549Z,1011.65
2018-05-12T05:40:55.712Z,1011.68
2018-05-12T05:42:04.907Z,1011.61
2018-05-12T05:43:13.808Z,1011.67
2018-05-12T05:44:22.998Z,1011.62
2018-05-12T05:45:32.445Z,1011.65
2018-05-12T05:46:42.412Z,1011.62
2018-05-12T05:47:52.092Z,1011.66
2018-05-12T05:49:01.769Z,1011.67
2018-05-12T05:50:11.006Z,1011.66
2018-05-12T05:51:21.011Z,1011.64
2018-05-12T05:52:30.699Z,1011.65
2018-05-12T05:53:39.896Z,1011.66
2018-05-12T05:54:49.353Z,1011.68
2018-05-12T05:55:58.578Z,1011.68
2018-05-12T05:57:08.270Z,1011.66
2018-05-12T05:58:17.179Z,1011.65
2018-05-12T05:59:26.380Z,1011.65
2018-05-12T06:00:36.315Z,1011.61
2018-05-12T06:01:46.008Z,1011.67
2018-05-12T06:02:55.700Z,1011.68
2018-05-12T06:04:05.134Z,1011.68
2018-05-12T06:05:14.304Z,1011.61
2018-05-12T06:06:23.498Z,1011.67
2018-05-12T06:07:33.205Z,1011.67
2018-05-12T06:08:42.360Z,1011.65
2018-05-12T06:09:51.259Z,1011.66
2018-05-12T06:11:01.210Z,1011.64
2018-05-12T06:12:10.384Z,1011.67
2018-05-12T06:13:19.821Z,1011.65
2018-05-12T06:14:29.013Z,1011.61
2018-05-12T06:15:38.692Z,1011.68
2018-05-12T06:16:48.149Z,1011.65
2018-05-12T06:17:57.866Z,1011.65
2018-05-12T06:19:07.499Z,1011.63
2018-05-12T06:20:16.937Z,1011.66
2018-05-12T06:21:26.649Z,1011.63
2018-05-12T06:22:36.135Z,1011.63
2018-05-12T06:23:45.354Z,1011.59
2018-05-12T06:24:55.297Z,1011.6
2018-05-12T06:26:05.274Z,1011.61
2018-05-12T06:27:14.699Z,1011.62
2018-05-12T06:28:24.514Z,1011.6
2018-05-12T06:29:33.972Z,1011.59
2018-05-12T06:30:43.662Z,1011.58
2018-05-12T06:31:53.340Z,1011.58
2018-05-12T06:33:02.766Z,1011.6
2018-05-12T06:34:12.449Z,1011.59
2018-05-12T06:35:21.694Z,1011.58
2018-05-12T06:36:31.116Z,1011.6
2018-05-12T06:37:40.578Z,1011.63
2018-05-12T06:38:50.415Z,1011.59
2018-05-12T06:39:59.593Z,1011.62
2018-05-12T06:41:08.828Z,1011.61
2018-05-12T06:42:18.256Z,1011.64
2018-05-12T06:43:27.679Z,1011.64
2018-05-12T06:44:37.601Z,1011.64
2018-05-12T06:45:47.326Z,1011.62
2018-05-12T06:46:57.026Z,1011.65
2018-05-12T06:48:06.199Z,1011.65
2018-05-12T06:49:15.376Z,1011.62
2018-05-12T06:50:24.931Z,1011.64
2018-05-12T06:51:34.932Z,1011.6
2018-05-12T06:52:44.469Z,1011.59
2018-05-12T06:53:54.965Z,1011.59
2018-05-12T06:55:03.905Z,1011.59
2018-05-12T06:56:13.317Z,1011.59
2018-05-12T06:57:23.003Z,1011.61
2018-05-12T06:58:31.924Z,1011.59
2018-05-12T06:59:41.631Z,1011.59
2018-05-12T07:00:51.396Z,1011.58
2018-05-12T07:02:00.820Z,1011.58
2018-05-12T07:03:10.240Z,1011.56
2018-05-12T07:04:19.143Z,1011.58
2018-05-12T07:05:28.554Z,1011.57
2018-05-12T07:06:37.759Z,1011.57
2018-05-12T07:07:47.456Z,1011.49
2018-05-12T07:08:56.617Z,1011.53
2018-05-12T07:10:06.052Z,1011.47
2018-05-12T07:11:15.504Z,1011.53
2018-05-12T07:12:24.955Z,1011.49
2018-05-12T07:13:33.967Z,1011.44
2018-05-12T07:14:43.548Z,1011.44
2018-05-12T07:15:53.288Z,1011.47
2018-05-12T07:17:02.479Z,1011.51
2018-05-12T07:18:12.162Z,1011.45
2018-05-12T07:19:21.387Z,1011.47
2018-05-12T07:20:30.651Z,1011.52
2018-05-12T07:21:40.091Z,1011.48
2018-05-12T07:22:49.811Z,1011.44
2018-05-12T07:23:59.274Z,1011.45
2018-05-12T07:25:07.934Z,1011.5
2018-05-12T07:26:17.618Z,1011.46
2018-05-12T07:27:27.363Z,1011.45
2018-05-12T07:28:36.784Z,1011.45
2018-05-12T07:29:46.046Z,1011.51
2018-05-12T07:30:55.506Z,1011.45
2018-05-12T07:32:05.465Z,1011.46
2018-05-12T07:33:14.418Z,1011.44
2018-05-12T07:34:24.193Z,1011.49
2018-05-12T07:35:34.064Z,1011.45
2018-05-12T07:36:43.673Z,1011.44
2018-05-12T07:37:53.698Z,1011.49
2018-05-12T07:39:03.195Z,1011.43
2018-05-12T07:40:12.449Z,1011.41
2018-05-12T07:41:21.888Z,1011.45
2018-05-12T07:42:31.349Z,1011.45
2018-05-12T07:43:40.836Z,1011.47
2018-05-12T07:44:50.235Z,1011.42
2018-05-12T07:46:00.207Z,1011.44
2018-05-12T07:47:09.902Z,1011.41
2018-05-12T07:48:19.324Z,1011.42
2018-05-12T07:49:28.774Z,1011.36
2018-05-12T07:50:37.443Z,1011.37
2018-05-12T07:51:47.152Z,1011.34
2018-05-12T07:52:56.588Z,1011.38
2018-05-12T07:54:05.521Z,1011.4
2018-05-12T07:55:14.949Z,1011.34
2018-05-12T07:56:24.372Z,1011.4
2018-05-12T07:57:33.810Z,1011.35
2018-05-12T07:58:43.244Z,1011.4
2018-05-12T07:59:52.459Z,1011.35
2018-05-12T08:01:01.662Z,1011.37
2018-05-12T08:02:11.428Z,1011.32
2018-05-12T08:03:20.880Z,1011.33
2018-05-12T08:04:30.820Z,1011.3
2018-05-12T08:05:40.542Z,1011.27
2018-05-12T08:06:50.021Z,1011.29
2018-05-12T08:07:59.216Z,1011.23
2018-05-12T08:09:08.492Z,1011.25
2018-05-12T08:10:18.443Z,1011.21
2018-05-12T08:11:27.604Z,1011.23
2018-05-12T08:12:37.062Z,1011.19
2018-05-12T08:13:46.620Z,1011.18
2018-05-12T08:14:56.069Z,1011.17
2018-05-12T08:16:05.263Z,1011.16
2018-05-12T08:17:14.944Z,1011.14
2018-05-12T08:18:24.392Z,1011.11
2018-05-12T08:19:34.158Z,1011.12
2018-05-12T08:20:43.075Z,1011.15
2018-05-12T08:21:52.752Z,1011.16
2018-05-12T08:23:02.215Z,1011.12
2018-05-12T08:24:11.711Z,1011.07
2018-05-12T08:25:21.429Z,1011.1
2018-05-12T08:26:31.446Z,1011.07
2018-05-12T08:27:40.879Z,1011.1
2018-05-12T08:28:50.549Z,1011.1
2018-05-12T08:29:59.722Z,1011.06
2018-05-12T08:31:09.181Z,1011.07
2018-05-12T08:32:18.714Z,1011.08
2018-05-12T08:33:28.439Z,1011.07
2018-05-12T08:34:37.873Z,1011.09
2018-05-12T08:35:47.614Z,1011.1
2018-05-12T08:36:56.778Z,1011.06
2018-05-12T08:38:06.261Z,1011.07
2018-05-12T08:39:15.959Z,1011.03
2018-05-12T08:40:26.040Z,1011.02
2018-05-12T08:41:36.665Z,1011.01
2018-05-12T08:42:46.092Z,1010.96
2018-05-12T08:43:55.806Z,1010.99
2018-05-12T08:45:05.503Z,1011
2018-05-12T08:46:14.938Z,1010.99
2018-05-12T08:47:24.366Z,1010.95
2018-05-12T08:48:33.892Z,1010.97
2018-05-12T08:49:43.625Z,1010.96
2018-05-12T08:50:53.076Z,1010.93
2018-05-12T08:52:02.005Z,1010.94
2018-05-12T08:53:11.708Z,1010.92
2018-05-12T08:54:21.723Z,1010.92
2018-05-12T08:55:31.704Z,1010.9
2018-05-12T08:56:41.728Z,1010.9
2018-05-12T08:57:51.209Z,1010.83
2018-05-12T08:59:00.136Z,1010.83
2018-05-12T09:00:09.827Z,1010.82
2018-05-12T09:01:19.525Z,1010.83
2018-05-12T09:02:28.976Z,1010.85
2018-05-12T09:03:38.426Z,1010.79
2018-05-12T09:04:48.444Z,1010.76
2018-05-12T09:05:57.917Z,1010.79
2018-05-12T09:07:07.158Z,1010.75
2018-05-12T09:08:17.536Z,1010.76
2018-05-12T09:09:27.225Z,1010.78
2018-05-12T09:10:36.920Z,1010.74
2018-05-12T09:11:46.404Z,1010.71
2018-05-12T09:12:55.612Z,1010.66
2018-05-12T09:14:04.525Z,1010.7
2018-05-12T09:15:14.046Z,1010.67
2018-05-12T09:16:23.218Z,1010.67
2018-05-12T09:17:32.936Z,1010.69
2018-05-12T09:18:42.116Z,1010.67
2018-05-12T09:19:51.847Z,1010.69
2018-05-12T09:21:01.285Z,1010.67
2018-05-12T09:22:10.475Z,1010.66
2018-05-12T09:23:20.202Z,1010.61
2018-05-12T09:24:29.890Z,1010.62
2018-05-12T09:25:39.651Z,1010.62
2018-05-12T09:26:48.951Z,1010.61
2018-05-12T09:27:57.842Z,1010.62
2018-05-12T09:29:06.999Z,1010.61
2018-05-12T09:30:16.240Z,1010.56
2018-05-12T09:31:25.391Z,1010.6
2018-05-12T09:32:34.818Z,1010.56
2018-05-12T09:33:43.999Z,1010.51
2018-05-12T09:34:53.732Z,1010.49
2018-05-12T09:36:03.433Z,1010.48
2018-05-12T09:37:13.141Z,1010.52
2018-05-12T09:38:22.948Z,1010.52
2018-05-12T09:39:32.384Z,1010.52
2018-05-12T09:40:41.588Z,1010.53
2018-05-12T09:41:51.020Z,1010.49
2018-05-12T09:43:00.468Z,1010.53
2018-05-12T09:44:09.899Z,1010.46
2018-05-12T09:45:19.363Z,1010.44
2018-05-12T09:46:29.069Z,1010.42
2018-05-12T09:47:38.515Z,1010.42
2018-05-12T09:48:47.710Z,1010.42
2018-05-12T09:49:57.399Z,1010.4
2018-05-12T09:51:07.394Z,1010.43
2018-05-12T09:52:16.886Z,1010.42
2018-05-12T09:53:27.201Z,1010.41
2018-05-12T09:54:36.673Z,1010.39
2018-05-12T09:55:46.379Z,1010.37
2018-05-12T09:56:55.559Z,1010.3
2018-05-12T09:58:05.292Z,1010.27
2018-05-12T09:59:14.744Z,1010.28
2018-05-12T10:00:23.936Z,1010.28
2018-05-12T10:01:33.360Z,1010.23
2018-05-12T10:02:42.821Z,1010.31
2018-05-12T10:03:52.554Z,1010.28
2018-05-12T10:05:01.751Z,1010.28
2018-05-12T10:06:11.472Z,1010.26
2018-05-12T10:07:20.923Z,1010.31
2018-05-12T10:08:30.375Z,1010.25
2018-05-12T10:09:39.587Z,1010.28
2018-05-12T10:10:49.066Z,1010.25
2018-05-12T10:11:58.325Z,1010.24
2018-05-12T10:13:07.819Z,1010.2
2018-05-12T10:14:17.270Z,1010.25
2018-05-12T10:15:26.892Z,1010.2
2018-05-12T10:16:37.048Z,1010.14
2018-05-12T10:17:46.736Z,1010.15
2018-05-12T10:18:55.907Z,1010.13
2018-05-12T10:20:05.612Z,1010.11
2018-05-12T10:21:15.350Z,1010.09
2018-05-12T10:22:26.137Z,1010.06
2018-05-12T10:23:35.875Z,1010.07
2018-05-12T10:24:45.310Z,1010.02
2018-05-12T10:25:54.724Z,1010.04
2018-05-12T10:27:04.508Z,1010.03
2018-05-12T10:28:13.956Z,1010.03
2018-05-12T10:29:23.907Z,1010.06
2018-05-12T10:30:33.584Z,1010
2018-05-12T10:31:42.480Z,1010.03
2018-05-12T10:32:51.705Z,1010.04
2018-05-12T10:34:01.484Z,1010.06
2018-05-12T10:35:10.691Z,1010.04
2018-05-12T10:36:19.603Z,1010.03
2018-05-12T10:37:29.024Z,1010.03
2018-05-12T10:38:38.224Z,1009.98
2018-05-12T10:39:46.868Z,1010
2018-05-12T10:40:56.653Z,1009.97
2018-05-12T10:42:06.171Z,1009.94
2018-05-12T10:43:15.367Z,1009.95
2018-05-12T10:44:24.554Z,1009.97
2018-05-12T10:45:34.329Z,1009.95
2018-05-12T10:46:44.086Z,1009.95
2018-05-12T10:47:53.509Z,1009.92
2018-05-12T10:49:02.967Z,1009.88
2018-05-12T10:50:12.644Z,1009.87
2018-05-12T10:51:22.317Z,1009.91
2018-05-12T10:52:31.513Z,1009.84
2018-05-12T10:53:40.932Z,1009.83
2018-05-12T10:54:50.184Z,1009.75
2018-05-12T10:55:59.940Z,1009.79
2018-05-12T10:57:09.647Z,1009.76
2018-05-12T10:58:19.370Z,1009.73
2018-05-12T10:59:28.336Z,1009.74
2018-05-12T11:00:37.789Z,1009.72
2018-05-12T11:01:47.244Z,1009.66
2018-05-12T11:02:57.225Z,1009.63
2018-05-12T11:04:06.427Z,1009.66
2018-05-12T11:05:15.871Z,1009.64
2018-05-12T11:06:25.557Z,1009.65
2018-05-12T11:07:34.742Z,1009.63
2018-05-12T11:08:43.916Z,1009.54
2018-05-12T11:09:53.118Z,1009.55
2018-05-12T11:11:02.553Z,1009.58
2018-05-12T11:12:11.721Z,1009.54
2018-05-12T11:13:20.905Z,1009.57
2018-05-12T11:14:30.334Z,1009.5
2018-05-12T11:15:40.322Z,1009.53
2018-05-12T11:16:50.208Z,1009.57
2018-05-12T11:17:59.432Z,1009.5
2018-05-12T11:19:08.625Z,1009.53
2018-05-12T11:20:18.638Z,1009.5
2018-05-12T11:21:28.181Z,1009.51
2018-05-12T11:22:38.011Z,1009.48
2018-05-12T11:23:47.692Z,1009.42
2018-05-12T11:24:56.882Z,1009.47
2018-05-12T11:26:06.855Z,1009.48
2018-05-12T11:27:16.036Z,1009.46
2018-05-12T11:28:25.205Z,1009.41
2018-05-12T11:29:35.218Z,1009.36
2018-05-12T11:30:44.744Z,1009.42
2018-05-12T11:31:54.179Z,1009.4
2018-05-12T11:33:03.091Z,1009.34
2018-05-12T11:34:12.777Z,1009.37
2018-05-12T11:35:22.205Z,1009.35
2018-05-12T11:36:31.886Z,1009.32
2018-05-12T11:37:41.348Z,1009.33
2018-05-12T11:38:50.405Z,1009.28
2018-05-12T11:40:00.285Z,1009.25
2018-05-12T11:41:10.605Z,1009.25
2018-05-12T11:42:19.813Z,1009.24
2018-05-12T11:43:29.252Z,1009.15
2018-05-12T11:44:38.830Z,1009.17
2018-05-12T11:45:48.682Z,1009.15
2018-05-12T11:46:57.891Z,1009.15
2018-05-12T11:48:07.066Z,1009.14
2018-05-12T11:49:16.535Z,1009.11
2018-05-12T11:50:25.701Z,1009.12
2018-05-12T11:51:34.897Z,1009.09
2018-05-12T11:52:44.338Z,1009.01
2018-05-12T11:53:54.008Z,1009.06
2018-05-12T11:55:03.924Z,1009.05
2018-05-12T11:56:13.641Z,1009
2018-05-12T11:57:23.313Z,1009.12
2018-05-12T11:58:32.788Z,1009.08
2018-05-12T11:59:42.240Z,1009.07
2018-05-12T12:00:51.766Z,1009.01
2018-05-12T12:02:00.959Z,1009.01
2018-05-12T12:03:10.143Z,1009
2018-05-12T12:04:19.553Z,1009.09
2018-05-12T12:05:29.507Z,1009.07
2018-05-12T12:06:39.435Z,1008.98
2018-05-12T12:07:49.146Z,1008.97
2018-05-12T12:08:58.347Z,1008.96
2018-05-12T12:10:07.815Z,1009.04
2018-05-12T12:11:17.505Z,1008.98
2018-05-12T12:12:26.950Z,1008.97
2018-05-12T12:13:35.857Z,1008.96
2018-05-12T12:14:45.586Z,1008.98
2018-05-12T12:15:55.288Z,1009.01
2018-05-12T12:17:05.015Z,1009
2018-05-12T12:18:14.998Z,1009.05
2018-05-12T12:19:23.908Z,1008.99
2018-05-12T12:20:33.858Z,1008.98
2018-05-12T12:21:43.570Z,1008.94
2018-05-12T12:22:52.997Z,1008.93
2018-05-12T12:24:01.945Z,1009
2018-05-12T12:25:11.148Z,1008.92
2018-05-12T12:26:20.646Z,1008.94
2018-05-12T12:27:30.608Z,1008.83
2018-05-12T12:28:40.032Z,1008.88
2018-05-12T12:29:49.209Z,1008.85
2018-05-12T12:30:58.410Z,1008.87
2018-05-12T12:32:08.086Z,1008.84
2018-05-12T12:33:17.368Z,1008.85
2018-05-12T12:34:27.513Z,1008.77
2018-05-12T12:35:36.977Z,1008.8
2018-05-12T12:36:46.684Z,1008.72
2018-05-12T12:37:56.129Z,1008.77
2018-05-12T12:39:05.283Z,1008.8
2018-05-12T12:40:14.987Z,1008.77
2018-05-12T12:41:24.706Z,1008.77
2018-05-12T12:42:34.396Z,1008.73
2018-05-12T12:43:43.822Z,1008.72
2018-05-12T12:44:53.257Z,1008.71
2018-05-12T12:46:03.407Z,1008.73
2018-05-12T12:47:12.827Z,1008.73
2018-05-12T12:48:22.019Z,1008.7
2018-05-12T12:49:31.227Z,1008.62
2018-05-12T12:50:40.667Z,1008.66
2018-05-12T12:51:50.818Z,1008.62
2018-05-12T12:52:59.989Z,1008.55
2018-05-12T12:54:09.458Z,1008.55
2018-05-12T12:55:18.907Z,1008.53
2018-05-12T12:56:28.832Z,1008.55
2018-05-12T12:57:38.751Z,1008.5
2018-05-12T12:58:47.937Z,1008.52
2018-05-12T12:59:57.757Z,1008.52
2018-05-12T13:01:07.210Z,1008.55
2018-05-12T13:02:16.842Z,1008.5
2018-05-12T13:03:26.207Z,1008.53
2018-05-12T13:04:35.888Z,1008.53
2018-05-12T13:05:45.711Z,1008.47
2018-05-12T13:06:54.630Z,1008.43
2018-05-12T13:08:03.563Z,1008.43
2018-05-12T13:09:13.231Z,1008.36
2018-05-12T13:10:22.928Z,1008.38
2018-05-12T13:11:31.857Z,1008.33
2018-05-12T13:12:40.782Z,1008.32
2018-05-12T13:13:50.722Z,1008.32
2018-05-12T13:15:00.141Z,1008.32
2018-05-12T13:16:09.855Z,1008.31
2018-05-12T13:17:19.274Z,1008.33
2018-05-12T13:18:28.176Z,1008.34
2018-05-12T13:19:37.358Z,1008.3
2018-05-12T13:20:46.576Z,1008.31
2018-05-12T13:21:56.276Z,1008.24
2018-05-12T13:23:05.880Z,1008.25
2018-05-12T13:24:15.562Z,1008.29
2018-05-12T13:25:25.498Z,1008.24
2018-05-12T13:26:35.173Z,1008.19
2018-05-12T13:27:44.095Z,1008.22
2018-05-12T13:28:53.583Z,1008.26
2018-05-12T13:30:03.007Z,1008.26
2018-05-12T13:31:12.176Z,1008.22
2018-05-12T13:32:21.393Z,1008.21
2018-05-12T13:33:30.604Z,1008.18
2018-05-12T13:34:40.351Z,1008.21
2018-05-12T13:35:49.759Z,1008.22
2018-05-12T13:36:59.206Z,1008.2
2018-05-12T13:38:08.645Z,1008.19
2018-05-12T13:39:18.095Z,1008.15
2018-05-12T13:40:27.618Z,1008.14
2018-05-12T13:41:37.465Z,1008.1
2018-05-12T13:42:46.925Z,1008.1
2018-05-12T13:43:56.447Z,1008.09
2018-05-12T13:45:05.879Z,1008.02
2018-05-12T13:46:15.444Z,1008.06
2018-05-12T13:47:24.711Z,1008.04
2018-05-12T13:48:34.138Z,1008.04
2018-05-12T13:49:43.820Z,1008
2018-05-12T13:50:53.528Z,1008.03
2018-05-12T13:52:02.452Z,1008.02
2018-05-12T13:53:11.920Z,1008.01
2018-05-12T13:54:21.345Z,1008.02
2018-05-12T13:55:30.568Z,1007.98
2018-05-12T13:56:40.114Z,1007.88
2018-05-12T13:57:49.974Z,1008.01
2018-05-12T13:58:59.921Z,1007.97
2018-05-12T14:00:09.121Z,1008.01
2018-05-12T14:01:18.533Z,1007.95
2018-05-12T14:02:27.703Z,1007.96
2018-05-12T14:03:37.381Z,1007.89